Time;durP1;ratioP1;P1;durP2;ratioP2;P2;SDS_P1;SDS_P2;PMS_P1;PMS_P2;Temp;Humidity;BMP_temperature;BMP_pressure;BME280_temperature;BME280_humidity;BME280_pressure;Samples;Min_cycle;Max_cycle;Signal;HPM_P1;HPM_P2
2023/05/25 00:01:43;;;;;;;23.25;12.88;;;14.30;76.90;;;;;;4704646;30;20056;-94
2023/05/25 00:04:15;;;;;;;24.67;12.85;;;14.30;76.90;;;;;;4718851;30;20053;-95
2023/05/25 00:06:44;;;;;;;21.43;11.70;;;14.40;76.90;;;;;;4704942;30;20053;-95
2023/05/25 00:09:11;;;;;;;24.42;12.32;;;14.30;77.20;;;;;;4718779;30;20101;-95
2023/05/25 00:11:39;;;;;;;21.20;12.18;;;14.40;77.30;;;;;;4704868;30;20116;-95
2023/05/25 00:14:07;;;;;;;25.77;12.48;;;14.40;77.10;;;;;;4719329;30;20147;-96
2023/05/25 00:16:39;;;;;;;21.92;12.02;;;14.40;76.80;;;;;;4705000;30;20059;-95
2023/05/25 00:19:09;;;;;;;26.00;11.93;;;14.30;77.00;;;;;;4704519;30;20063;-95
2023/05/25 00:21:40;;;;;;;20.38;12.38;;;14.30;77.00;;;;;;4704432;30;20056;-94
2023/05/25 00:24:07;;;;;;;21.15;12.65;;;14.30;77.00;;;;;;4718568;30;20144;-94
2023/05/25 00:26:34;;;;;;;22.05;12.32;;;14.30;77.40;;;;;;4704069;30;20119;-94
2023/05/25 00:29:03;;;;;;;24.48;12.68;;;14.30;77.70;;;;;;4718627;30;20060;-95
2023/05/25 00:31:35;;;;;;;27.73;11.73;;;14.40;77.70;;;;;;4718783;30;20049;-95
2023/05/25 00:34:05;;;;;;;23.80;11.85;;;14.40;77.20;;;;;;4703890;30;20156;-93
2023/05/25 00:36:34;;;;;;;23.58;11.32;;;14.30;77.10;;;;;;4703601;30;20072;-94
2023/05/25 00:39:02;;;;;;;23.73;11.73;;;14.30;77.30;;;;;;4704296;30;20061;-94
2023/05/25 00:41:31;;;;;;;22.75;11.73;;;14.30;77.10;;;;;;4718168;30;20065;-94
2023/05/25 00:43:58;;;;;;;25.97;11.77;;;14.30;77.10;;;;;;4703848;30;20074;-94
2023/05/25 00:46:26;;;;;;;22.30;11.32;;;14.10;77.40;;;;;;4703782;30;20065;-95
2023/05/25 00:48:55;;;;;;;18.65;10.52;;;14.00;77.70;;;;;;4718118;30;20073;-94
2023/05/25 00:51:22;;;;;;;23.45;11.73;;;14.00;77.80;;;;;;4703752;30;20148;-94
2023/05/25 00:53:49;;;;;;;21.42;11.50;;;14.00;78.20;;;;;;4718014;30;20057;-95
2023/05/25 00:56:29;;;;;;;21.47;11.40;;;14.00;78.00;;;;;;4718213;30;20148;-95
2023/05/25 00:59:02;;;;;;;21.85;11.52;;;14.00;78.10;;;;;;4703879;30;20057;-95
2023/05/25 01:01:32;;;;;;;23.50;12.48;;;14.00;78.10;;;;;;4718210;30;20057;-96
2023/05/25 01:04:02;;;;;;;21.13;11.50;;;14.00;78.40;;;;;;4703601;30;20531;-95
2023/05/25 01:06:32;;;;;;;22.17;11.18;;;14.00;78.20;;;;;;4718062;30;20045;-95
2023/05/25 01:09:07;;;;;;;19.53;10.90;;;14.00;78.40;;;;;;4705276;30;20053;-95
2023/05/25 01:11:37;;;;;;;20.00;10.38;;;13.90;78.60;;;;;;4718129;30;20091;-94
2023/05/25 01:14:05;;;;;;;19.92;11.13;;;13.90;78.80;;;;;;4703725;30;20487;-95
2023/05/25 01:16:33;;;;;;;22.25;10.77;;;13.90;78.80;;;;;;4717903;30;20053;-94
2023/05/25 01:19:01;;;;;;;20.60;10.98;;;13.90;78.60;;;;;;4709690;30;20531;-96
2023/05/25 01:21:40;;;;;;;18.57;10.73;;;13.90;78.20;;;;;;4721278;30;20052;-94
2023/05/25 01:24:16;;;;;;;21.40;10.52;;;14.00;78.30;;;;;;4735725;30;20056;-95
2023/05/25 01:26:48;;;;;;;21.30;11.15;;;14.00;78.20;;;;;;4721108;30;20048;-95
2023/05/25 01:29:18;;;;;;;24.08;11.95;;;14.00;78.30;;;;;;4735509;30;20053;-94
2023/05/25 01:31:46;;;;;;;23.92;11.85;;;14.00;78.30;;;;;;4720960;30;20454;-94
2023/05/25 01:34:15;;;;;;;24.50;10.53;;;13.90;78.80;;;;;;4737878;30;20052;-94
2023/05/25 01:36:42;;;;;;;26.23;10.85;;;13.80;79.40;;;;;;4724074;30;20053;-94
2023/05/25 01:39:10;;;;;;;23.58;11.63;;;13.70;79.80;;;;;;4738974;30;20144;-94
2023/05/25 01:41:37;;;;;;;20.58;10.82;;;13.70;79.80;;;;;;4739004;30;20152;-93
2023/05/25 01:44:06;;;;;;;21.23;10.82;;;13.80;79.80;;;;;;4724695;30;20052;-93
2023/05/25 01:46:38;;;;;;;23.37;12.00;;;13.80;79.70;;;;;;4738907;30;20060;-94
2023/05/25 01:49:37;;;;;;;20.58;11.18;;;13.80;79.90;;;;;;4724679;30;20045;-93
2023/05/25 01:52:29;;;;;;;18.83;10.32;;;13.80;79.70;;;;;;4704839;30;20056;-94
2023/05/25 01:55:02;;;;;;;24.35;10.90;;;13.90;79.60;;;;;;4724107;30;20532;-93
2023/05/25 01:57:33;;;;;;;20.73;12.23;;;13.90;79.70;;;;;;4723937;30;20053;-94
2023/05/25 02:00:02;;;;;;;22.20;10.73;;;13.90;79.70;;;;;;4738189;30;20049;-94
2023/05/25 02:02:44;;;;;;;18.75;10.95;;;13.90;80.00;;;;;;4725387;30;20044;-93
2023/05/25 02:05:12;;;;;;;18.60;11.13;;;13.90;79.80;;;;;;4723465;30;20512;-94
2023/05/25 02:07:39;;;;;;;20.58;10.80;;;13.90;79.80;;;;;;4709380;30;20048;-93
2023/05/25 02:10:07;;;;;;;20.00;10.63;;;13.90;79.70;;;;;;4737571;30;20056;-94
2023/05/25 02:12:34;;;;;;;23.47;10.63;;;14.00;79.70;;;;;;4726472;30;20048;-94
2023/05/25 02:15:05;;;;;;;23.63;10.63;;;14.00;79.70;;;;;;4740880;30;20072;-93
2023/05/25 02:17:35;;;;;;;18.33;10.35;;;14.00;79.50;;;;;;4745382;30;20099;-93
2023/05/25 02:20:08;;;;;;;22.60;11.60;;;14.00;79.60;;;;;;4755480;30;20100;-93
2023/05/25 02:22:36;;;;;;;22.58;10.77;;;14.00;79.80;;;;;;4740997;30;20084;-93
2023/05/25 02:25:07;;;;;;;20.77;11.87;;;14.00;80.10;;;;;;4755331;30;20052;-93
2023/05/25 02:27:35;;;;;;;28.42;12.50;;;13.90;80.30;;;;;;4755550;30;20076;-95
2023/05/25 02:30:06;;;;;;;22.23;11.52;;;13.80;80.60;;;;;;4755538;30;20051;-94
2023/05/25 02:32:34;;;;;;;25.05;12.32;;;13.80;80.70;;;;;;4740797;30;20056;-94
2023/05/25 02:35:01;;;;;;;21.48;11.55;;;13.70;80.90;;;;;;4740812;30;20052;-93
2023/05/25 02:37:29;;;;;;;21.57;12.27;;;13.70;80.90;;;;;;4755525;30;20056;-94
2023/05/25 02:39:56;;;;;;;25.45;12.85;;;13.80;81.00;;;;;;4740765;30;20041;-94
2023/05/25 02:42:24;;;;;;;23.52;11.85;;;13.70;81.10;;;;;;4726408;30;20059;-94
2023/05/25 02:44:51;;;;;;;27.30;11.70;;;13.60;81.00;;;;;;4754967;30;20567;-94
2023/05/25 02:47:18;;;;;;;25.88;12.73;;;13.70;81.10;;;;;;4755459;30;20048;-94
2023/05/25 02:49:46;;;;;;;24.43;11.97;;;13.60;81.20;;;;;;4755102;30;20048;-94
2023/05/25 02:52:13;;;;;;;25.33;12.02;;;13.60;81.20;;;;;;4740673;30;20110;-95
2023/05/25 02:54:40;;;;;;;27.48;12.80;;;13.60;81.40;;;;;;4740528;30;20139;-94
2023/05/25 02:57:10;;;;;;;24.80;12.88;;;13.60;81.80;;;;;;4754543;30;20110;-94
2023/05/25 02:59:38;;;;;;;25.20;12.60;;;13.50;81.80;;;;;;4755614;30;20101;-95
2023/05/25 03:02:05;;;;;;;25.60;12.20;;;13.40;82.10;;;;;;4755198;30;20147;-95
2023/05/25 03:04:36;;;;;;;26.80;12.93;;;13.50;81.90;;;;;;4755537;30;20055;-95
2023/05/25 03:07:04;;;;;;;24.10;12.57;;;13.50;82.10;;;;;;4740014;30;20135;-95
2023/05/25 03:09:31;;;;;;;27.92;12.57;;;13.50;81.90;;;;;;4740282;30;20537;-94
2023/05/25 03:12:01;;;;;;;24.27;11.80;;;13.40;82.10;;;;;;4754981;30;20577;-94
2023/05/25 03:14:28;;;;;;;22.77;12.40;;;13.50;82.00;;;;;;4754734;30;20062;-94
2023/05/25 03:17:05;;;;;;;24.75;12.10;;;13.50;81.90;;;;;;4740118;30;20052;-95
2023/05/25 03:19:32;;;;;;;20.50;11.75;;;13.50;81.80;;;;;;4739958;30;20056;-95
2023/05/25 03:21:59;;;;;;;25.88;12.88;;;13.60;81.50;;;;;;4740170;30;20055;-95
2023/05/25 03:24:27;;;;;;;26.50;13.27;;;13.50;81.70;;;;;;4754329;30;20475;-95
2023/05/25 03:26:58;;;;;;;26.20;13.00;;;13.50;81.80;;;;;;4754003;30;20049;-95
2023/05/25 03:29:25;;;;;;;26.42;12.35;;;13.50;81.60;;;;;;4754838;30;20512;-95
2023/05/25 03:31:53;;;;;;;23.15;12.57;;;13.50;81.90;;;;;;4754475;30;20062;-95
2023/05/25 03:34:25;;;;;;;24.77;12.75;;;13.50;82.00;;;;;;4754497;30;20583;-94
2023/05/25 03:36:53;;;;;;;24.70;13.18;;;13.50;82.00;;;;;;4754616;30;20496;-95
2023/05/25 03:39:24;;;;;;;26.73;13.97;;;13.50;82.00;;;;;;4754797;30;20139;-95
2023/05/25 03:41:52;;;;;;;26.92;13.20;;;13.50;82.10;;;;;;4754602;30;20091;-95
2023/05/25 03:44:19;;;;;;;33.15;14.00;;;13.50;82.00;;;;;;4754834;30;20052;-95
2023/05/25 03:46:47;;;;;;;30.40;14.55;;;13.50;82.10;;;;;;4754933;30;20048;-95
2023/05/25 03:49:14;;;;;;;27.13;13.75;;;13.50;81.90;;;;;;4754849;30;20070;-95
2023/05/25 03:51:42;;;;;;;28.30;14.33;;;13.50;81.90;;;;;;4739706;30;20048;-95
2023/05/25 03:54:10;;;;;;;33.58;14.57;;;13.50;81.90;;;;;;4754598;30;20052;-95
2023/05/25 03:56:37;;;;;;;28.88;13.95;;;13.50;82.00;;;;;;4753736;30;20142;-95
2023/05/25 03:59:04;;;;;;;29.70;15.25;;;13.50;81.90;;;;;;4754468;30;20063;-95
2023/05/25 04:01:31;;;;;;;27.48;14.15;;;13.50;81.90;;;;;;4754386;30;20055;-95
2023/05/25 04:03:58;;;;;;;31.27;14.33;;;13.40;82.20;;;;;;4754457;30;20048;-95
2023/05/25 04:06:28;;;;;;;27.60;14.27;;;13.50;82.10;;;;;;4747787;30;20052;-93
2023/05/25 04:08:56;;;;;;;28.42;14.93;;;13.50;81.80;;;;;;4747938;30;20072;-92
2023/05/25 04:11:26;;;;;;;27.52;13.73;;;13.50;81.70;;;;;;4736653;30;20066;-93
2023/05/25 04:13:53;;;;;;;27.63;13.68;;;13.50;81.70;;;;;;4736917;30;20484;-92
2023/05/25 04:16:22;;;;;;;26.03;13.53;;;13.50;81.40;;;;;;4736086;30;20052;-93
2023/05/25 04:18:50;;;;;;;24.25;12.88;;;13.60;81.30;;;;;;4721869;30;20064;-95
2023/05/25 04:21:17;;;;;;;26.13;13.38;;;13.60;81.30;;;;;;4736783;30;20061;-92
2023/05/25 04:23:44;;;;;;;27.05;13.25;;;13.50;81.60;;;;;;4736106;30;20143;-93
2023/05/25 04:26:12;;;;;;;23.70;12.93;;;13.50;81.50;;;;;;4729603;30;20048;-93
2023/05/25 04:28:40;;;;;;;28.43;12.57;;;13.50;81.40;;;;;;4722031;30;20052;-92
2023/05/25 04:31:25;;;;;;;26.40;12.90;;;13.60;81.20;;;;;;4721574;30;20053;-93
2023/05/25 04:34:13;;;;;;;24.27;13.25;;;13.60;81.10;;;;;;4736508;30;20055;-92
2023/05/25 04:37:04;;;;;;;24.05;13.20;;;13.50;81.10;;;;;;4722340;30;20060;-92
2023/05/25 04:39:32;;;;;;;25.80;13.68;;;13.50;81.20;;;;;;4721897;30;20104;-92
2023/05/25 04:42:03;;;;;;;25.70;13.40;;;13.50;81.40;;;;;;4721899;30;20578;-92
2023/05/25 04:44:32;;;;;;;30.10;13.98;;;13.50;81.60;;;;;;4721313;30;20144;-92
2023/05/25 04:47:01;;;;;;;24.48;13.45;;;13.50;81.70;;;;;;4721108;30;20138;-92
2023/05/25 04:49:32;;;;;;;27.45;13.68;;;13.50;81.90;;;;;;4722847;30;20052;-90
2023/05/25 04:52:00;;;;;;;28.25;14.18;;;13.40;81.40;;;;;;4721892;30;20055;-92
2023/05/25 04:54:29;;;;;;;27.10;13.77;;;13.30;81.80;;;;;;4725361;30;20045;-92
2023/05/25 04:56:58;;;;;;;25.98;14.57;;;13.30;82.30;;;;;;4735831;30;20083;-93
2023/05/25 04:59:26;;;;;;;27.52;14.20;;;13.20;82.20;;;;;;4721625;30;20057;-92
2023/05/25 05:01:53;;;;;;;32.33;16.30;;;13.20;82.30;;;;;;4733081;30;20109;-93
2023/05/25 05:04:20;;;;;;;36.67;17.23;;;13.20;82.20;;;;;;4728660;30;20056;-93
2023/05/25 05:06:48;;;;;;;36.43;18.30;;;13.20;82.30;;;;;;4737379;30;20055;-93
2023/05/25 05:09:18;;;;;;;32.53;18.60;;;13.20;82.60;;;;;;4731790;30;20049;-93
2023/05/25 05:11:47;;;;;;;33.65;18.38;;;13.30;82.60;;;;;;4722258;30;20056;-94
2023/05/25 05:14:15;;;;;;;34.50;18.27;;;13.20;82.10;;;;;;4735736;30;20083;-93
2023/05/25 05:16:44;;;;;;;35.47;18.13;;;13.20;82.20;;;;;;4721159;30;20073;-93
2023/05/25 05:19:12;;;;;;;29.97;16.93;;;13.20;82.00;;;;;;4730590;30;20057;-93
2023/05/25 05:21:40;;;;;;;33.03;16.10;;;13.20;82.10;;;;;;4736153;30;20553;-93
2023/05/25 05:24:07;;;;;;;31.02;17.17;;;13.20;82.20;;;;;;4736307;30;20135;-93
2023/05/25 05:26:35;;;;;;;30.95;17.05;;;13.10;82.20;;;;;;4715396;30;20080;-93
2023/05/25 05:29:26;;;;;;;32.72;18.88;;;13.00;82.20;;;;;;4721946;30;20408;-93
2023/05/25 05:31:54;;;;;;;32.30;19.03;;;12.90;82.70;;;;;;4734604;30;20102;-93
2023/05/25 05:34:22;;;;;;;37.75;18.70;;;13.00;82.70;;;;;;4716910;30;20498;-93
2023/05/25 05:36:50;;;;;;;36.17;20.08;;;12.90;82.90;;;;;;4727683;30;20044;-92
2023/05/25 05:39:26;;;;;;;34.13;18.15;;;13.00;82.90;;;;;;4731714;30;20053;-93
2023/05/25 05:41:54;;;;;;;32.28;18.20;;;12.90;82.50;;;;;;4735226;30;20151;-93
2023/05/25 05:44:22;;;;;;;33.43;17.80;;;13.00;82.40;;;;;;4720884;30;20140;-91
2023/05/25 05:46:58;;;;;;;29.73;17.05;;;13.00;82.50;;;;;;4721067;30;20052;-90
2023/05/25 05:49:28;;;;;;;35.50;17.48;;;13.10;82.40;;;;;;4720314;30;20055;-90
2023/05/25 05:51:57;;;;;;;32.88;16.70;;;13.10;82.30;;;;;;4720069;30;20071;-91
2023/05/25 05:54:26;;;;;;;35.20;17.17;;;13.10;82.30;;;;;;4734775;30;20055;-91
2023/05/25 05:56:54;;;;;;;32.53;17.20;;;13.10;82.20;;;;;;4734561;30;20053;-90
2023/05/25 05:59:22;;;;;;;40.90;19.90;;;13.10;82.40;;;;;;4720660;30;20104;-91
2023/05/25 06:01:55;;;;;;;37.38;18.60;;;13.20;81.90;;;;;;4734793;30;20044;-93
2023/05/25 06:04:32;;;;;;;35.85;19.65;;;13.10;82.00;;;;;;4721725;30;20045;-93
2023/05/25 06:07:07;;;;;;;33.20;18.15;;;13.10;81.80;;;;;;4734980;30;20052;-93
2023/05/25 06:09:34;;;;;;;32.97;18.60;;;13.00;82.00;;;;;;4727656;30;20057;-93
2023/05/25 06:12:06;;;;;;;37.33;19.20;;;13.10;82.00;;;;;;4721221;30;20523;-92
2023/05/25 06:14:33;;;;;;;38.67;19.80;;;13.10;82.00;;;;;;4720151;30;20475;-93
2023/05/25 06:17:04;;;;;;;37.35;19.33;;;13.10;82.10;;;;;;4736534;30;20524;-95
2023/05/25 06:23:57;;;;;;;44.27;20.37;;;13.00;82.10;;;;;;4739577;30;20060;-94
2023/05/25 06:26:25;;;;;;;35.90;18.42;;;12.90;82.80;;;;;;4738146;30;20048;-94
2023/05/25 06:28:53;;;;;;;37.38;19.77;;;13.00;82.60;;;;;;4738379;30;20139;-94
2023/05/25 06:31:21;;;;;;;41.13;20.98;;;13.00;82.40;;;;;;4738645;30;20048;-94
2023/05/25 06:33:48;;;;;;;42.25;20.90;;;13.00;82.40;;;;;;4737998;30;20139;-94
2023/05/25 06:36:15;;;;;;;37.97;19.73;;;12.90;82.50;;;;;;4738242;30;20397;-96
2023/05/25 06:38:44;;;;;;;39.17;20.05;;;12.80;82.40;;;;;;4739672;30;20056;-94
2023/05/25 06:41:13;;;;;;;40.28;18.77;;;12.80;82.50;;;;;;4739072;30;20431;-95
2023/05/25 06:43:42;;;;;;;37.92;18.70;;;12.70;83.10;;;;;;4738681;30;20061;-94
2023/05/25 06:46:16;;;;;;;35.53;17.92;;;12.50;83.00;;;;;;4720873;30;20056;-96
2023/05/25 06:48:45;;;;;;;38.20;20.13;;;12.50;83.30;;;;;;4731331;30;20056;-95
2023/05/25 06:51:12;;;;;;;35.25;20.58;;;12.50;83.40;;;;;;4738059;30;20481;-95
2023/05/25 06:53:40;;;;;;;34.58;18.25;;;12.70;83.50;;;;;;4730004;30;20059;-94
2023/05/25 06:56:07;;;;;;;38.70;20.15;;;12.70;82.80;;;;;;4737190;30;20610;-94
2023/05/25 06:58:34;;;;;;;36.92;20.27;;;12.70;83.00;;;;;;4730386;30;20135;-94
2023/05/25 07:01:02;;;;;;;44.17;19.90;;;12.90;83.10;;;;;;4735080;30;20053;-93
2023/05/25 07:03:29;;;;;;;36.95;19.15;;;13.00;83.00;;;;;;4738357;30;20501;-94
2023/05/25 07:05:57;;;;;;;33.08;19.40;;;13.00;82.30;;;;;;4731143;30;20060;-94
2023/05/25 07:08:24;;;;;;;33.03;17.00;;;12.90;82.00;;;;;;4732400;30;20062;-94
2023/05/25 07:10:51;;;;;;;33.20;18.75;;;12.80;81.90;;;;;;4765280;30;20057;-93
2023/05/25 07:13:18;;;;;;;39.53;19.73;;;12.90;82.40;;;;;;4749579;30;20152;-95
2023/05/25 07:15:46;;;;;;;40.42;20.52;;;12.90;82.10;;;;;;4745365;30;20573;-95
2023/05/25 07:18:15;;;;;;;38.50;21.10;;;13.00;82.10;;;;;;4755176;30;20080;-94
2023/05/25 07:20:42;;;;;;;38.38;19.42;;;13.00;82.10;;;;;;4740764;30;20142;-95
2023/05/25 07:23:11;;;;;;;35.92;18.75;;;13.00;82.50;;;;;;4754744;30;20105;-94
2023/05/25 07:25:38;;;;;;;36.73;17.97;;;13.00;81.70;;;;;;4754724;30;20048;-94
2023/05/25 07:28:06;;;;;;;34.35;17.20;;;13.00;81.80;;;;;;4748808;30;20055;-94
2023/05/25 07:30:36;;;;;;;35.97;19.08;;;12.90;82.00;;;;;;4736782;30;20049;-93
2023/05/25 07:33:03;;;;;;;31.98;18.70;;;12.90;82.10;;;;;;4738739;30;20133;-94
2023/05/25 07:35:33;;;;;;;28.48;16.27;;;12.90;82.40;;;;;;4756775;30;20060;-94
2023/05/25 07:38:03;;;;;;;31.60;16.60;;;13.00;81.70;;;;;;4737388;30;20060;-95
2023/05/25 07:40:32;;;;;;;25.90;14.23;;;13.00;82.00;;;;;;4725892;30;20056;-96
2023/05/25 07:43:00;;;;;;;28.42;15.27;;;13.00;81.00;;;;;;4747098;30;20086;-90
2023/05/25 07:45:27;;;;;;;28.67;13.75;;;13.00;81.50;;;;;;4755257;30;20048;-91
2023/05/25 07:47:54;;;;;;;31.23;14.93;;;12.90;81.50;;;;;;4755809;30;20412;-95
2023/05/25 07:50:22;;;;;;;28.23;13.70;;;13.00;81.40;;;;;;4735949;30;20501;-94
2023/05/25 07:52:50;;;;;;;25.48;13.90;;;13.00;81.20;;;;;;4739462;30;20056;-94
2023/05/25 07:55:18;;;;;;;25.45;14.18;;;13.00;81.10;;;;;;4754096;30;20052;-95
2023/05/25 07:57:46;;;;;;;24.75;12.77;;;13.00;80.50;;;;;;4754424;30;20056;-93
2023/05/25 08:00:13;;;;;;;28.75;13.63;;;13.00;81.00;;;;;;4754534;30;20087;-95
2023/05/25 08:02:40;;;;;;;28.03;13.87;;;13.00;81.00;;;;;;4754571;30;20060;-95
2023/05/25 08:05:08;;;;;;;31.40;15.00;;;13.00;80.80;;;;;;4739772;30;20416;-95
2023/05/25 08:07:36;;;;;;;25.45;14.52;;;13.00;80.80;;;;;;4754856;30;20583;-94
2023/05/25 08:10:05;;;;;;;27.60;14.45;;;13.00;81.00;;;;;;4741945;30;20065;-94
2023/05/25 08:12:32;;;;;;;26.45;12.88;;;13.10;80.90;;;;;;4736980;30;20497;-96
2023/05/25 08:15:15;;;;;;;22.43;11.90;;;13.10;79.60;;;;;;4736817;30;20057;-95
2023/05/25 08:17:43;;;;;;;27.27;12.05;;;13.10;80.00;;;;;;4741876;30;20402;-96
2023/05/25 08:20:11;;;;;;;22.45;12.48;;;13.20;80.40;;;;;;4731892;30;20500;-96
2023/05/25 08:22:40;;;;;;;20.90;11.30;;;13.30;80.30;;;;;;4747155;30;20165;-96
2023/05/25 08:25:14;;;;;;;22.90;10.88;;;13.40;79.00;;;;;;4730786;30;20068;-96
2023/05/25 08:27:52;;;;;;;21.93;11.37;;;13.40;79.20;;;;;;4744101;30;20057;-96
2023/05/25 08:30:19;;;;;;;21.63;11.43;;;13.50;79.50;;;;;;4737439;30;20451;-95
2023/05/25 08:32:49;;;;;;;23.33;11.70;;;13.40;78.50;;;;;;4736689;30;20118;-96
2023/05/25 08:35:16;;;;;;;23.98;12.40;;;13.50;78.70;;;;;;4736510;30;20424;-96
2023/05/25 08:37:45;;;;;;;21.98;12.07;;;13.50;78.50;;;;;;4736204;30;20055;-96
2023/05/25 08:40:17;;;;;;;25.63;12.50;;;13.50;78.30;;;;;;4738022;30;20497;-96
2023/05/25 08:42:45;;;;;;;21.05;12.13;;;13.50;78.30;;;;;;4736416;30;20053;-95
2023/05/25 08:45:12;;;;;;;20.15;11.20;;;13.50;77.90;;;;;;4736693;30;20497;-94
2023/05/25 08:48:03;;;;;;;21.63;11.85;;;13.50;77.70;;;;;;4738351;30;20052;-94
2023/05/25 08:50:32;;;;;;;26.27;12.13;;;13.50;77.30;;;;;;4738348;30;20466;-94
2023/05/25 08:53:03;;;;;;;24.37;12.17;;;13.70;78.20;;;;;;4724032;30;20052;-93
2023/05/25 08:55:35;;;;;;;26.85;13.45;;;13.70;77.80;;;;;;4721021;30;20120;-94
2023/05/25 08:58:10;;;;;;;23.80;12.38;;;13.70;76.20;;;;;;4721033;30;20405;-94
2023/05/25 09:00:44;;;;;;;26.13;13.27;;;13.70;77.20;;;;;;4714022;30;20060;-96
2023/05/25 09:03:19;;;;;;;22.45;12.60;;;13.70;77.30;;;;;;4721587;30;20056;-96
2023/05/25 09:05:47;;;;;;;25.43;12.83;;;13.70;77.70;;;;;;4721621;30;20056;-96
2023/05/25 09:08:24;;;;;;;25.17;13.32;;;14.00;77.50;;;;;;4722112;30;20076;-95
2023/05/25 09:10:52;;;;;;;28.23;13.80;;;14.10;77.00;;;;;;4738505;30;20069;-95
2023/05/25 09:13:20;;;;;;;24.17;12.85;;;14.10;76.00;;;;;;4738899;30;20052;-95
2023/05/25 09:15:49;;;;;;;21.67;11.60;;;14.30;74.80;;;;;;4752739;30;20060;-95
2023/05/25 09:18:16;;;;;;;22.80;11.37;;;14.40;74.90;;;;;;4740770;30;20151;-96
2023/05/25 09:20:44;;;;;;;27.13;16.98;;;14.40;74.30;;;;;;4744553;30;20064;-96
2023/05/25 09:23:14;;;;;;;25.60;12.63;;;14.50;74.60;;;;;;4750355;30;20138;-96
2023/05/25 09:25:46;;;;;;;21.83;12.15;;;14.60;73.80;;;;;;4748038;30;20048;-96
2023/05/25 09:28:19;;;;;;;24.00;12.43;;;14.60;73.30;;;;;;4743594;30;20115;-96
2023/05/25 09:30:56;;;;;;;24.53;13.30;;;14.60;73.20;;;;;;4745781;30;20064;-96
2023/05/25 09:33:27;;;;;;;28.40;14.80;;;14.70;73.70;;;;;;4740608;30;20150;-93
2023/05/25 09:35:54;;;;;;;29.65;13.95;;;14.70;73.60;;;;;;4739484;30;20052;-94
2023/05/25 09:38:22;;;;;;;27.08;14.10;;;14.80;73.70;;;;;;4739563;30;20055;-95
2023/05/25 09:40:50;;;;;;;25.08;13.98;;;14.70;73.10;;;;;;4740006;30;20086;-95
2023/05/25 09:43:18;;;;;;;25.60;14.00;;;14.80;73.50;;;;;;4738370;30;20056;-92
2023/05/25 09:46:05;;;;;;;28.50;14.13;;;14.80;73.80;;;;;;4739413;30;20052;-93
2023/05/25 09:48:33;;;;;;;26.05;14.50;;;14.90;72.70;;;;;;4738811;30;20071;-95
2023/05/25 09:51:00;;;;;;;25.08;13.60;;;15.00;72.80;;;;;;4739226;30;20064;-96
2023/05/25 09:53:28;;;;;;;25.92;14.50;;;15.00;72.50;;;;;;4738888;30;20056;-96
2023/05/25 09:55:56;;;;;;;27.47;14.63;;;14.90;72.20;;;;;;4743764;30;20459;-90
2023/05/25 09:58:23;;;;;;;26.90;14.35;;;14.90;73.30;;;;;;4727057;30;20080;-90
2023/05/25 10:00:54;;;;;;;26.77;13.07;;;15.00;73.20;;;;;;4755451;30;20048;-90
2023/05/25 10:03:22;;;;;;;22.77;11.65;;;15.10;73.70;;;;;;4728153;30;20083;-90
2023/05/25 10:05:50;;;;;;;21.92;11.98;;;15.20;73.00;;;;;;4755745;30;20059;-90
2023/05/25 10:08:20;;;;;;;23.50;12.20;;;15.30;72.40;;;;;;4755734;30;20059;-91
2023/05/25 10:10:48;;;;;;;21.40;11.48;;;15.40;72.10;;;;;;4741386;30;20064;-90
2023/05/25 10:13:22;;;;;;;22.02;11.68;;;15.50;71.80;;;;;;4736417;30;20137;-90
2023/05/25 10:15:53;;;;;;;22.17;11.90;;;15.50;70.70;;;;;;4726497;30;20064;-90
2023/05/25 10:18:26;;;;;;;21.25;11.82;;;15.40;70.70;;;;;;4755410;30;20088;-88
2023/05/25 10:21:01;;;;;;;18.80;11.33;;;15.40;71.20;;;;;;4740815;30;20423;-89
2023/05/25 10:23:39;;;;;;;20.40;10.50;;;15.50;71.20;;;;;;4753599;30;20117;-89
2023/05/25 10:26:07;;;;;;;20.67;11.20;;;15.50;70.00;;;;;;4740356;30;20052;-92
2023/05/25 10:28:38;;;;;;;19.92;10.80;;;15.60;70.40;;;;;;4740817;30;20052;-91
2023/05/25 10:31:08;;;;;;;18.58;10.73;;;15.70;69.70;;;;;;4752221;30;20053;-90
2023/05/25 10:33:36;;;;;;;20.03;11.70;;;15.80;69.60;;;;;;4740305;30;20044;-90
2023/05/25 10:36:05;;;;;;;20.75;12.25;;;16.00;70.10;;;;;;4755071;30;20143;-91
2023/05/25 10:38:39;;;;;;;23.00;12.40;;;16.10;70.60;;;;;;4740594;30;20079;-90
2023/05/25 10:41:10;;;;;;;24.02;11.90;;;16.10;71.60;;;;;;4754822;30;20079;-90
2023/05/25 10:43:39;;;;;;;21.67;11.90;;;16.10;70.90;;;;;;4751087;30;20052;-90
2023/05/25 10:46:07;;;;;;;21.43;11.97;;;16.10;70.40;;;;;;4740188;30;20055;-90
2023/05/25 10:49:01;;;;;;;21.55;11.38;;;16.20;70.60;;;;;;4754880;30;20044;-90
2023/05/25 10:51:42;;;;;;;21.30;11.38;;;16.10;70.00;;;;;;4740077;30;20056;-89
2023/05/25 10:54:13;;;;;;;20.42;11.57;;;16.10;69.70;;;;;;4754474;30;20055;-88
2023/05/25 10:57:13;;;;;;;19.65;11.15;;;16.10;71.70;;;;;;4754373;30;20055;-88
2023/05/25 10:59:50;;;;;;;21.63;10.67;;;16.00;70.80;;;;;;4736257;30;20067;-89
2023/05/25 11:02:23;;;;;;;22.00;11.18;;;16.00;70.20;;;;;;4751427;30;20567;-88
2023/05/25 11:05:26;;;;;;;22.33;11.52;;;16.00;69.00;;;;;;4736181;30;20134;-89
2023/05/25 11:07:57;;;;;;;19.77;10.63;;;16.00;69.50;;;;;;4753947;30;20055;-89
2023/05/25 11:10:46;;;;;;;21.15;10.88;;;15.90;68.70;;;;;;4724620;30;20091;-89
2023/05/25 11:13:22;;;;;;;21.27;10.97;;;15.90;69.80;;;;;;4719092;30;20508;-89
2023/05/25 11:16:16;;;;;;;19.77;11.20;;;16.00;70.00;;;;;;4718927;30;20052;-89
2023/05/25 11:18:48;;;;;;;20.48;10.88;;;15.80;69.70;;;;;;4729103;30;20076;-89
2023/05/25 11:21:29;;;;;;;21.33;11.30;;;15.80;69.60;;;;;;4722240;30;20421;-89
2023/05/25 11:24:02;;;;;;;21.30;11.35;;;15.80;69.90;;;;;;4722896;30;20135;-88
2023/05/25 11:26:34;;;;;;;20.07;11.17;;;15.80;70.00;;;;;;4751234;30;20083;-89
2023/05/25 11:29:12;;;;;;;19.65;11.77;;;15.90;71.00;;;;;;4722565;30;20045;-89
2023/05/25 11:31:39;;;;;;;21.10;11.65;;;16.00;70.40;;;;;;4721962;30;20052;-89
2023/05/25 11:34:11;;;;;;;25.10;13.40;;;16.00;70.30;;;;;;4722025;30;20049;-88
2023/05/25 11:36:38;;;;;;;21.00;13.15;;;16.00;69.60;;;;;;4736488;30;20123;-88
2023/05/25 11:39:05;;;;;;;21.60;12.33;;;16.10;69.60;;;;;;4721714;30;20044;-88
2023/05/25 11:42:05;;;;;;;22.48;12.52;;;16.10;69.20;;;;;;4736005;30;20432;-89
2023/05/25 11:49:26;;;;;;;23.60;13.20;;;16.00;69.10;;;;;;4737503;30;20047;-89
2023/05/25 11:51:55;;;;;;;23.33;13.32;;;15.80;70.50;;;;;;4725971;30;20106;-88
2023/05/25 11:54:27;;;;;;;23.37;13.57;;;15.80;70.00;;;;;;4721849;30;20106;-89
2023/05/25 11:56:58;;;;;;;25.25;13.18;;;15.90;70.50;;;;;;4721876;30;20053;-88
2023/05/25 11:59:29;;;;;;;26.27;14.35;;;16.00;70.30;;;;;;4721438;30;20114;-93
2023/05/25 12:02:06;;;;;;;23.65;12.95;;;16.00;69.70;;;;;;4721410;30;20503;-94
2023/05/25 12:04:34;;;;;;;23.98;14.15;;;16.00;69.90;;;;;;4721692;30;20114;-89
2023/05/25 12:07:05;;;;;;;25.40;14.00;;;16.00;70.60;;;;;;4706885;30;20056;-89
2023/05/25 12:09:34;;;;;;;24.13;14.23;;;16.00;69.80;;;;;;4744443;30;20142;-89
2023/05/25 12:12:05;;;;;;;27.17;13.48;;;16.00;70.80;;;;;;4753728;30;20056;-88
2023/05/25 12:14:45;;;;;;;27.67;14.05;;;16.10;70.30;;;;;;4738590;30;20131;-86
2023/05/25 12:17:12;;;;;;;27.17;14.88;;;16.10;69.30;;;;;;4741381;30;20056;-91
2023/05/25 12:19:40;;;;;;;24.17;13.97;;;16.00;69.10;;;;;;4739372;30;20056;-92
2023/05/25 12:22:08;;;;;;;25.60;14.57;;;16.00;69.20;;;;;;4739224;30;20083;-91
2023/05/25 12:24:35;;;;;;;27.75;14.57;;;16.00;69.80;;;;;;4768509;30;20060;-92
2023/05/25 12:27:19;;;;;;;28.33;14.77;;;16.10;70.40;;;;;;4723980;30;20130;-91
2023/05/25 12:29:47;;;;;;;29.45;16.02;;;16.20;70.00;;;;;;4738705;30;20542;-93
2023/05/25 12:32:15;;;;;;;28.53;15.83;;;16.10;70.20;;;;;;4738348;30;20143;-91
2023/05/25 12:34:43;;;;;;;28.65;15.93;;;16.00;70.20;;;;;;4735538;30;20591;-89
2023/05/25 12:37:20;;;;;;;27.67;15.63;;;15.90;70.20;;;;;;4725522;30;20052;-89
2023/05/25 12:39:49;;;;;;;27.75;15.55;;;15.80;70.60;;;;;;4752482;30;20523;-89
2023/05/25 12:42:16;;;;;;;31.00;17.65;;;15.60;70.90;;;;;;4752192;30;20408;-89
2023/05/25 12:44:45;;;;;;;30.47;16.13;;;15.50;71.70;;;;;;4746549;30;20076;-89
2023/05/25 12:47:23;;;;;;;27.90;16.13;;;15.50;71.90;;;;;;4741643;30;20048;-89
2023/05/25 12:49:52;;;;;;;28.58;16.60;;;15.50;72.00;;;;;;4752174;30;20048;-89
2023/05/25 12:52:37;;;;;;;31.83;17.75;;;15.50;72.20;;;;;;4751074;30;20045;-89
2023/05/25 12:55:25;;;;;;;31.63;17.35;;;15.50;72.10;;;;;;4749415;30;20090;-90